sensor_id;sensor_type;location;lat;lon;timestamp;temperature;humidity
19435;DHT22;9853;50.848;4.108;2024-03-25T11:46:59;14.20;99.90
19435;DHT22;9853;50.848;4.108;2024-03-25T11:49:20;14.40;99.90
19435;DHT22;9853;50.848;4.108;2024-03-25T11:51:39;14.50;99.90
19435;DHT22;9853;50.848;4.108;2024-03-25T11:53:52;14.90;99.90
19435;DHT22;9853;50.848;4.108;2024-03-25T11:55:59;15.10;99.90
19435;DHT22;9853;50.848;4.108;2024-03-25T11:58:21;15.10;99.90
19435;DHT22;9853;50.848;4.108;2024-03-25T12:00:32;15.20;99.90
19435;DHT22;9853;50.848;4.108;2024-03-25T12:02:50;15.50;99.90
19435;DHT22;9853;50.848;4.108;2024-03-25T12:05:00;15.50;99.90
19435;DHT22;9853;50.848;4.108;2024-03-25T12:07:03;15.30;99.90
19435;DHT22;9853;50.848;4.108;2024-03-25T12:09:07;15.00;99.90
19435;DHT22;9853;50.848;4.108;2024-03-25T12:11:39;14.60;99.90
19435;DHT22;9853;50.848;4.108;2024-03-25T12:14:00;14.30;99.90
19435;DHT22;9853;50.848;4.108;2024-03-25T12:16:03;14.20;99.90
19435;DHT22;9853;50.848;4.108;2024-03-25T12:18:13;14.10;99.90
19435;DHT22;9853;50.848;4.108;2024-03-25T12:20:22;13.60;99.90
19435;DHT22;9853;50.848;4.108;2024-03-25T12:22:26;14.00;99.90
19435;DHT22;9853;50.848;4.108;2024-03-25T12:24:51;14.10;99.90
19435;DHT22;9853;50.848;4.108;2024-03-25T12:26:52;14.30;99.90
19435;DHT22;9853;50.848;4.108;2024-03-25T12:29:00;14.30;99.90
19435;DHT22;9853;50.848;4.108;2024-03-25T12:31:16;14.40;99.90
19435;DHT22;9853;50.848;4.108;2024-03-25T12:36:17;14.20;99.90
19435;DHT22;9853;50.848;4.108;2024-03-25T12:41:25;15.10;99.90
19435;DHT22;9853;50.848;4.108;2024-03-25T12:43:26;15.40;99.90
19435;DHT22;9853;50.848;4.108;2024-03-25T12:45:42;14.70;99.90
19435;DHT22;9853;50.848;4.108;2024-03-25T12:47:59;14.90;99.90
19435;DHT22;9853;50.848;4.108;2024-03-25T12:50:06;15.30;99.90
19435;DHT22;9853;50.848;4.108;2024-03-25T12:52:14;15.40;99.90
19435;DHT22;9853;50.848;4.108;2024-03-25T12:57:11;15.30;99.90
19435;DHT22;9853;50.848;4.108;2024-03-25T12:59:38;14.90;99.90
19435;DHT22;9853;50.848;4.108;2024-03-25T13:01:52;14.80;99.90
19435;DHT22;9853;50.848;4.108;2024-03-25T13:04:05;14.80;99.90
19435;DHT22;9853;50.848;4.108;2024-03-25T13:06:06;14.90;99.90
19435;DHT22;9853;50.848;4.108;2024-03-25T13:08:09;14.70;99.90
19435;DHT22;9853;50.848;4.108;2024-03-25T13:10:15;14.50;99.90
19435;DHT22;9853;50.848;4.108;2024-03-25T13:12:19;14.50;99.90
19435;DHT22;9853;50.848;4.108;2024-03-25T13:14:26;14.00;99.90
19435;DHT22;9853;50.848;4.108;2024-03-25T13:16:35;13.40;99.90
19435;DHT22;9853;50.848;4.108;2024-03-25T13:18:36;13.30;99.90
19435;DHT22;9853;50.848;4.108;2024-03-25T13:20:47;13.30;99.90
19435;DHT22;9853;50.848;4.108;2024-03-25T13:22:56;13.40;99.90
19435;DHT22;9853;50.848;4.108;2024-03-25T13:24:59;13.70;99.90
19435;DHT22;9853;50.848;4.108;2024-03-25T13:27:01;13.70;99.90
19435;DHT22;9853;50.848;4.108;2024-03-25T13:29:13;13.80;99.90
19435;DHT22;9853;50.848;4.108;2024-03-25T13:31:25;13.90;99.90
19435;DHT22;9853;50.848;4.108;2024-03-25T13:33:49;14.00;99.90
19435;DHT22;9853;50.848;4.108;2024-03-25T13:35:58;13.90;99.90
19435;DHT22;9853;50.848;4.108;2024-03-25T13:38:05;13.60;99.90
19435;DHT22;9853;50.848;4.108;2024-03-25T13:40:12;13.60;99.90
19435;DHT22;9853;50.848;4.108;2024-03-25T13:42:45;13.70;99.90
19435;DHT22;9853;50.848;4.108;2024-03-25T13:44:49;13.80;99.90
19435;DHT22;9853;50.848;4.108;2024-03-25T13:46:58;14.10;99.90
19435;DHT22;9853;50.848;4.108;2024-03-25T13:49:02;14.50;99.90
19435;DHT22;9853;50.848;4.108;2024-03-25T13:51:06;14.70;99.90
19435;DHT22;9853;50.848;4.108;2024-03-25T13:53:09;14.70;99.90
19435;DHT22;9853;50.848;4.108;2024-03-25T13:55:13;14.60;99.90
19435;DHT22;9853;50.848;4.108;2024-03-25T13:57:22;14.60;99.90
19435;DHT22;9853;50.848;4.108;2024-03-25T13:59:23;14.70;99.90
19435;DHT22;9853;50.848;4.108;2024-03-25T14:01:24;14.70;99.90
19435;DHT22;9853;50.848;4.108;2024-03-25T14:03:27;14.40;99.90
19435;DHT22;9853;50.848;4.108;2024-03-25T14:05:36;14.20;99.90
19435;DHT22;9853;50.848;4.108;2024-03-25T14:07:39;14.00;99.90
19435;DHT22;9853;50.848;4.108;2024-03-25T14:09:40;14.00;99.90
19435;DHT22;9853;50.848;4.108;2024-03-25T14:11:45;14.10;99.90
19435;DHT22;9853;50.848;4.108;2024-03-25T14:13:46;14.60;99.90
19435;DHT22;9853;50.848;4.108;2024-03-25T14:15:50;14.90;99.90
19435;DHT22;9853;50.848;4.108;2024-03-25T14:17:50;15.30;99.90
19435;DHT22;9853;50.848;4.108;2024-03-25T14:19:59;15.10;99.90
19435;DHT22;9853;50.848;4.108;2024-03-25T14:22:09;15.10;99.90
19435;DHT22;9853;50.848;4.108;2024-03-25T14:24:18;14.90;99.90
19435;DHT22;9853;50.848;4.108;2024-03-25T14:26:32;14.80;99.90
19435;DHT22;9853;50.848;4.108;2024-03-25T14:28:33;15.00;99.90
19435;DHT22;9853;50.848;4.108;2024-03-25T14:30:33;14.60;99.90
19435;DHT22;9853;50.848;4.108;2024-03-25T14:32:34;14.30;99.90
19435;DHT22;9853;50.848;4.108;2024-03-25T14:34:38;14.00;99.90
19435;DHT22;9853;50.848;4.108;2024-03-25T14:36:41;13.70;99.90
19435;DHT22;9853;50.848;4.108;2024-03-25T14:38:48;13.70;99.90
19435;DHT22;9853;50.848;4.108;2024-03-25T14:40:50;13.80;99.90
19435;DHT22;9853;50.848;4.108;2024-03-25T14:42:51;13.50;99.90
19435;DHT22;9853;50.848;4.108;2024-03-25T14:44:54;13.40;99.90
19435;DHT22;9853;50.848;4.108;2024-03-25T14:46:55;13.50;99.90
19435;DHT22;9853;50.848;4.108;2024-03-25T14:48:56;13.70;99.90
19435;DHT22;9853;50.848;4.108;2024-03-25T14:50:56;13.80;99.90
19435;DHT22;9853;50.848;4.108;2024-03-25T14:52:57;14.00;99.90
19435;DHT22;9853;50.848;4.108;2024-03-25T14:55:01;14.30;99.90
19435;DHT22;9853;50.848;4.108;2024-03-25T14:57:02;14.30;99.90
19435;DHT22;9853;50.848;4.108;2024-03-25T14:59:05;14.10;99.90
19435;DHT22;9853;50.848;4.108;2024-03-25T15:01:06;13.90;99.90
19435;DHT22;9853;50.848;4.108;2024-03-25T15:03:09;13.80;99.90
19435;DHT22;9853;50.848;4.108;2024-03-25T15:05:10;13.50;99.90
19435;DHT22;9853;50.848;4.108;2024-03-25T15:07:11;13.40;99.90
19435;DHT22;9853;50.848;4.108;2024-03-25T15:09:12;13.50;99.90
19435;DHT22;9853;50.848;4.108;2024-03-25T15:11:14;13.40;99.90
19435;DHT22;9853;50.848;4.108;2024-03-25T15:13:15;13.60;99.90
19435;DHT22;9853;50.848;4.108;2024-03-25T15:15:16;13.50;99.90
19435;DHT22;9853;50.848;4.108;2024-03-25T15:17:20;13.60;99.90
19435;DHT22;9853;50.848;4.108;2024-03-25T15:19:21;13.60;99.90
19435;DHT22;9853;50.848;4.108;2024-03-25T15:21:22;13.80;99.90
19435;DHT22;9853;50.848;4.108;2024-03-25T15:23:23;13.90;99.90
19435;DHT22;9853;50.848;4.108;2024-03-25T15:25:29;14.10;99.90
19435;DHT22;9853;50.848;4.108;2024-03-25T15:27:29;14.10;99.90
19435;DHT22;9853;50.848;4.108;2024-03-25T15:29:31;14.10;99.90
19435;DHT22;9853;50.848;4.108;2024-03-25T15:31:37;14.20;99.90
19435;DHT22;9853;50.848;4.108;2024-03-25T15:33:50;14.50;99.90
19435;DHT22;9853;50.848;4.108;2024-03-25T15:38:12;14.00;99.90
19435;DHT22;9853;50.848;4.108;2024-03-25T15:40:16;14.00;99.90
19435;DHT22;9853;50.848;4.108;2024-03-25T15:42:21;14.20;99.90
19435;DHT22;9853;50.848;4.108;2024-03-25T15:44:37;14.30;99.90
19435;DHT22;9853;50.848;4.108;2024-03-25T15:46:40;14.20;99.90
19435;DHT22;9853;50.848;4.108;2024-03-25T15:48:41;14.20;99.90
19435;DHT22;9853;50.848;4.108;2024-03-25T15:50:43;14.10;99.90
19435;DHT22;9853;50.848;4.108;2024-03-25T15:52:44;14.10;99.90
19435;DHT22;9853;50.848;4.108;2024-03-25T15:54:47;14.00;99.90
19435;DHT22;9853;50.848;4.108;2024-03-25T15:56:51;14.00;99.90
19435;DHT22;9853;50.848;4.108;2024-03-25T15:58:52;14.10;99.90
19435;DHT22;9853;50.848;4.108;2024-03-25T16:00:55;13.90;99.90
19435;DHT22;9853;50.848;4.108;2024-03-25T16:03:01;13.90;99.90
19435;DHT22;9853;50.848;4.108;2024-03-25T16:05:04;13.80;99.90
19435;DHT22;9853;50.848;4.108;2024-03-25T16:07:08;13.60;99.90
19435;DHT22;9853;50.848;4.108;2024-03-25T16:09:10;13.60;99.90
19435;DHT22;9853;50.848;4.108;2024-03-25T16:11:17;13.70;99.90
19435;DHT22;9853;50.848;4.108;2024-03-25T16:13:18;13.70;99.90
19435;DHT22;9853;50.848;4.108;2024-03-25T16:15:19;13.40;99.90
19435;DHT22;9853;50.848;4.108;2024-03-25T16:17:20;13.40;99.90
19435;DHT22;9853;50.848;4.108;2024-03-25T16:19:20;13.30;99.90
19435;DHT22;9853;50.848;4.108;2024-03-25T16:21:21;13.20;99.90
19435;DHT22;9853;50.848;4.108;2024-03-25T16:23:26;13.20;99.90
19435;DHT22;9853;50.848;4.108;2024-03-25T16:25:30;13.30;99.90
19435;DHT22;9853;50.848;4.108;2024-03-25T16:27:31;13.30;99.90
19435;DHT22;9853;50.848;4.108;2024-03-25T16:29:32;13.30;99.90
19435;DHT22;9853;50.848;4.108;2024-03-25T16:31:35;13.20;99.90
19435;DHT22;9853;50.848;4.108;2024-03-25T16:33:36;13.00;99.90
19435;DHT22;9853;50.848;4.108;2024-03-25T16:35:39;13.00;99.90
19435;DHT22;9853;50.848;4.108;2024-03-25T16:37:42;12.90;99.90
19435;DHT22;9853;50.848;4.108;2024-03-25T16:39:50;12.90;99.90
19435;DHT22;9853;50.848;4.108;2024-03-25T16:41:56;13.10;99.90
19435;DHT22;9853;50.848;4.108;2024-03-25T16:43:57;13.00;99.90
19435;DHT22;9853;50.848;4.108;2024-03-25T16:46:16;12.90;99.90
19435;DHT22;9853;50.848;4.108;2024-03-25T16:48:22;12.90;99.90
19435;DHT22;9853;50.848;4.108;2024-03-25T16:50:31;13.00;99.90
19435;DHT22;9853;50.848;4.108;2024-03-25T16:52:37;12.90;99.90
19435;DHT22;9853;50.848;4.108;2024-03-25T16:54:54;12.70;99.90
19435;DHT22;9853;50.848;4.108;2024-03-25T16:57:04;12.60;99.90
19435;DHT22;9853;50.848;4.108;2024-03-25T16:59:11;12.50;99.90
19435;DHT22;9853;50.848;4.108;2024-03-25T17:01:12;12.40;99.90
19435;DHT22;9853;50.848;4.108;2024-03-25T17:03:13;12.40;99.90
19435;DHT22;9853;50.848;4.108;2024-03-25T17:05:14;12.30;99.90
19435;DHT22;9853;50.848;4.108;2024-03-25T17:07:15;12.20;99.90
19435;DHT22;9853;50.848;4.108;2024-03-25T17:09:29;12.20;99.90
19435;DHT22;9853;50.848;4.108;2024-03-25T17:11:51;12.20;99.90
19435;DHT22;9853;50.848;4.108;2024-03-25T17:14:05;12.30;99.90
19435;DHT22;9853;50.848;4.108;2024-03-25T17:16:21;12.20;99.90
19435;DHT22;9853;50.848;4.108;2024-03-25T17:18:27;12.20;99.90
19435;DHT22;9853;50.848;4.108;2024-03-25T17:20:44;12.10;99.90
19435;DHT22;9853;50.848;4.108;2024-03-25T17:22:45;12.10;99.90
19435;DHT22;9853;50.848;4.108;2024-03-25T17:24:53;12.00;99.90
19435;DHT22;9853;50.848;4.108;2024-03-25T17:27:04;12.00;99.90
19435;DHT22;9853;50.848;4.108;2024-03-25T17:29:31;11.90;99.90
19435;DHT22;9853;50.848;4.108;2024-03-25T17:31:56;11.90;99.90
19435;DHT22;9853;50.848;4.108;2024-03-25T17:34:25;11.90;99.90
19435;DHT22;9853;50.848;4.108;2024-03-25T17:36:40;11.80;99.90
19435;DHT22;9853;50.848;4.108;2024-03-25T17:38:44;11.80;99.90
19435;DHT22;9853;50.848;4.108;2024-03-25T17:41:01;11.70;99.90
19435;DHT22;9853;50.848;4.108;2024-03-25T17:43:10;11.70;99.90
19435;DHT22;9853;50.848;4.108;2024-03-25T17:45:17;11.60;99.90
19435;DHT22;9853;50.848;4.108;2024-03-25T17:47:31;11.60;99.90
19435;DHT22;9853;50.848;4.108;2024-03-25T17:49:34;11.60;99.90
19435;DHT22;9853;50.848;4.108;2024-03-25T17:52:06;11.50;99.90
19435;DHT22;9853;50.848;4.108;2024-03-25T17:54:20;11.40;99.90
19435;DHT22;9853;50.848;4.108;2024-03-25T17:56:21;11.40;99.90
19435;DHT22;9853;50.848;4.108;2024-03-25T17:58:27;11.40;99.90
19435;DHT22;9853;50.848;4.108;2024-03-25T18:00:30;11.40;99.90
19435;DHT22;9853;50.848;4.108;2024-03-25T18:02:47;11.30;99.90
19435;DHT22;9853;50.848;4.108;2024-03-25T18:04:59;11.30;99.90
19435;DHT22;9853;50.848;4.108;2024-03-25T18:07:20;11.30;99.90
19435;DHT22;9853;50.848;4.108;2024-03-25T18:12:54;11.20;99.90
19435;DHT22;9853;50.848;4.108;2024-03-25T18:15:43;11.10;99.90
19435;DHT22;9853;50.848;4.108;2024-03-25T18:17:59;11.10;99.90
19435;DHT22;9853;50.848;4.108;2024-03-25T18:20:17;11.10;99.90
19435;DHT22;9853;50.848;4.108;2024-03-25T18:22:44;11.00;99.90
19435;DHT22;9853;50.848;4.108;2024-03-25T18:25:04;11.00;99.90
19435;DHT22;9853;50.848;4.108;2024-03-25T18:27:34;10.90;99.90
19435;DHT22;9853;50.848;4.108;2024-03-25T18:29:53;10.90;99.90
19435;DHT22;9853;50.848;4.108;2024-03-25T18:35:17;10.90;99.90
19435;DHT22;9853;50.848;4.108;2024-03-25T18:37:20;10.90;99.90
19435;DHT22;9853;50.848;4.108;2024-03-25T18:39:42;10.80;99.90
19435;DHT22;9853;50.848;4.108;2024-03-25T18:41:55;10.80;99.90
19435;DHT22;9853;50.848;4.108;2024-03-25T18:44:32;10.80;99.90
19435;DHT22;9853;50.848;4.108;2024-03-25T18:46:55;10.70;99.90
19435;DHT22;9853;50.848;4.108;2024-03-25T18:48:58;10.70;99.90
19435;DHT22;9853;50.848;4.108;2024-03-25T18:51:02;10.70;99.90
19435;DHT22;9853;50.848;4.108;2024-03-25T18:53:03;10.70;99.90
19435;DHT22;9853;50.848;4.108;2024-03-25T19:02:09;10.60;99.90
19435;DHT22;9853;50.848;4.108;2024-03-25T19:04:15;10.60;99.90
19435;DHT22;9853;50.848;4.108;2024-03-25T19:06:49;10.60;99.90
19435;DHT22;9853;50.848;4.108;2024-03-25T19:09:08;10.60;99.90
19435;DHT22;9853;50.848;4.108;2024-03-25T19:11:14;10.70;99.90
19435;DHT22;9853;50.848;4.108;2024-03-25T19:13:50;10.60;99.90
19435;DHT22;9853;50.848;4.108;2024-03-25T19:22:39;10.40;99.90
19435;DHT22;9853;50.848;4.108;2024-03-25T19:31:52;10.40;99.90
19435;DHT22;9853;50.848;4.108;2024-03-25T19:34:15;10.30;99.90
19435;DHT22;9853;50.848;4.108;2024-03-25T19:36:50;10.30;99.90
19435;DHT22;9853;50.848;4.108;2024-03-25T19:45:44;10.30;99.90
19435;DHT22;9853;50.848;4.108;2024-03-25T20:01:31;10.20;99.90
19435;DHT22;9853;50.848;4.108;2024-03-25T20:04:27;10.20;99.90
19435;DHT22;9853;50.848;4.108;2024-03-25T20:09:13;10.10;99.90
19435;DHT22;9853;50.848;4.108;2024-03-25T20:35:34;10.00;99.90
19435;DHT22;9853;50.848;4.108;2024-03-25T20:40:44;10.00;99.90
19435;DHT22;9853;50.848;4.108;2024-03-25T20:42:51;9.90;99.90
19435;DHT22;9853;50.848;4.108;2024-03-25T20:44:59;10.00;99.90
19435;DHT22;9853;50.848;4.108;2024-03-25T20:47:32;10.00;99.90
19435;DHT22;9853;50.848;4.108;2024-03-25T20:49:38;9.90;99.90
19435;DHT22;9853;50.848;4.108;2024-03-25T20:51:42;9.90;99.90
19435;DHT22;9853;50.848;4.108;2024-03-25T20:53:54;9.90;99.90
19435;DHT22;9853;50.848;4.108;2024-03-25T20:56:00;9.90;99.90
19435;DHT22;9853;50.848;4.108;2024-03-25T20:58:06;9.90;99.90
19435;DHT22;9853;50.848;4.108;2024-03-25T21:00:07;10.00;99.90
19435;DHT22;9853;50.848;4.108;2024-03-25T21:02:19;10.00;99.90
19435;DHT22;9853;50.848;4.108;2024-03-25T21:04:20;10.00;99.90
19435;DHT22;9853;50.848;4.108;2024-03-25T21:06:35;10.00;99.90
19435;DHT22;9853;50.848;4.108;2024-03-25T21:08:41;9.90;99.90
19435;DHT22;9853;50.848;4.108;2024-03-25T21:10:43;10.00;99.90
19435;DHT22;9853;50.848;4.108;2024-03-25T21:12:47;10.00;99.90
19435;DHT22;9853;50.848;4.108;2024-03-25T21:14:54;10.10;99.90
19435;DHT22;9853;50.848;4.108;2024-03-25T21:17:18;10.30;99.90
19435;DHT22;9853;50.848;4.108;2024-03-25T21:19:34;10.30;99.90
19435;DHT22;9853;50.848;4.108;2024-03-25T21:21:35;10.10;99.90
19435;DHT22;9853;50.848;4.108;2024-03-25T21:23:36;10.10;99.90
19435;DHT22;9853;50.848;4.108;2024-03-25T21:25:41;10.20;99.90
19435;DHT22;9853;50.848;4.108;2024-03-25T21:27:45;10.20;99.90
19435;DHT22;9853;50.848;4.108;2024-03-25T21:29:45;10.20;99.90
19435;DHT22;9853;50.848;4.108;2024-03-25T21:31:47;10.10;99.90
19435;DHT22;9853;50.848;4.108;2024-03-25T21:33:50;10.30;99.90
19435;DHT22;9853;50.848;4.108;2024-03-25T21:36:15;10.50;99.90
19435;DHT22;9853;50.848;4.108;2024-03-25T21:38:31;10.80;99.90
19435;DHT22;9853;50.848;4.108;2024-03-25T21:40:32;11.00;99.90
19435;DHT22;9853;50.848;4.108;2024-03-25T21:42:33;11.10;99.90
19435;DHT22;9853;50.848;4.108;2024-03-25T21:44:37;11.40;99.90
19435;DHT22;9853;50.848;4.108;2024-03-25T21:46:38;11.40;99.90
19435;DHT22;9853;50.848;4.108;2024-03-25T21:48:39;11.20;99.90
19435;DHT22;9853;50.848;4.108;2024-03-25T21:50:59;11.10;99.90
19435;DHT22;9853;50.848;4.108;2024-03-25T21:53:00;11.20;99.90
19435;DHT22;9853;50.848;4.108;2024-03-25T21:55:10;11.10;99.90
19435;DHT22;9853;50.848;4.108;2024-03-25T21:57:14;11.00;99.90
19435;DHT22;9853;50.848;4.108;2024-03-25T21:59:15;10.90;99.90
19435;DHT22;9853;50.848;4.108;2024-03-25T22:01:16;10.80;99.90
19435;DHT22;9853;50.848;4.108;2024-03-25T22:03:21;10.70;99.90
19435;DHT22;9853;50.848;4.108;2024-03-25T22:05:22;10.50;99.90
19435;DHT22;9853;50.848;4.108;2024-03-25T22:07:27;10.40;99.90
19435;DHT22;9853;50.848;4.108;2024-03-25T22:09:28;10.30;99.90
19435;DHT22;9853;50.848;4.108;2024-03-25T22:11:47;10.20;99.90
19435;DHT22;9853;50.848;4.108;2024-03-25T22:13:48;10.00;99.90
19435;DHT22;9853;50.848;4.108;2024-03-25T22:16:01;10.00;99.90
19435;DHT22;9853;50.848;4.108;2024-03-25T22:18:02;9.80;99.90
19435;DHT22;9853;50.848;4.108;2024-03-25T22:20:07;9.80;99.90
19435;DHT22;9853;50.848;4.108;2024-03-25T22:22:08;9.80;99.90
19435;DHT22;9853;50.848;4.108;2024-03-25T22:24:20;9.90;99.90
19435;DHT22;9853;50.848;4.108;2024-03-25T22:26:21;9.80;99.90
19435;DHT22;9853;50.848;4.108;2024-03-25T22:28:25;9.80;99.90
19435;DHT22;9853;50.848;4.108;2024-03-25T22:30:25;9.80;99.90
19435;DHT22;9853;50.848;4.108;2024-03-25T22:32:32;9.50;99.90
19435;DHT22;9853;50.848;4.108;2024-03-25T22:34:52;9.50;99.90
19435;DHT22;9853;50.848;4.108;2024-03-25T22:37:00;9.40;99.90
19435;DHT22;9853;50.848;4.108;2024-03-25T22:39:01;9.40;99.90
19435;DHT22;9853;50.848;4.108;2024-03-25T22:41:20;9.40;99.90
19435;DHT22;9853;50.848;4.108;2024-03-25T22:43:29;9.20;99.90
19435;DHT22;9853;50.848;4.108;2024-03-25T22:45:35;9.00;99.90
19435;DHT22;9853;50.848;4.108;2024-03-25T22:47:39;8.90;99.90
19435;DHT22;9853;50.848;4.108;2024-03-25T22:49:41;8.80;99.90
19435;DHT22;9853;50.848;4.108;2024-03-25T22:51:42;8.80;99.90
19435;DHT22;9853;50.848;4.108;2024-03-25T22:53:44;8.70;99.90
19435;DHT22;9853;50.848;4.108;2024-03-25T22:56:11;8.70;99.90
19435;DHT22;9853;50.848;4.108;2024-03-25T22:58:16;8.70;99.90
19435;DHT22;9853;50.848;4.108;2024-03-25T23:00:19;8.70;99.90
19435;DHT22;9853;50.848;4.108;2024-03-25T23:02:33;8.70;99.90
19435;DHT22;9853;50.848;4.108;2024-03-25T23:04:36;8.70;99.90
19435;DHT22;9853;50.848;4.108;2024-03-25T23:06:55;8.70;99.90
19435;DHT22;9853;50.848;4.108;2024-03-25T23:08:56;8.70;99.90
19435;DHT22;9853;50.848;4.108;2024-03-25T23:11:08;8.70;99.90
19435;DHT22;9853;50.848;4.108;2024-03-25T23:13:18;8.70;99.90
19435;DHT22;9853;50.848;4.108;2024-03-25T23:15:19;8.70;99.90
19435;DHT22;9853;50.848;4.108;2024-03-25T23:17:20;8.80;99.90
19435;DHT22;9853;50.848;4.108;2024-03-25T23:19:21;8.80;99.90
19435;DHT22;9853;50.848;4.108;2024-03-25T23:21:31;8.80;99.90
19435;DHT22;9853;50.848;4.108;2024-03-25T23:23:32;8.80;99.90
19435;DHT22;9853;50.848;4.108;2024-03-25T23:25:35;8.80;99.90
19435;DHT22;9853;50.848;4.108;2024-03-25T23:27:42;8.80;99.90
19435;DHT22;9853;50.848;4.108;2024-03-25T23:29:43;8.80;99.90
19435;DHT22;9853;50.848;4.108;2024-03-25T23:31:45;8.80;99.90
19435;DHT22;9853;50.848;4.108;2024-03-25T23:33:46;8.70;99.90
19435;DHT22;9853;50.848;4.108;2024-03-25T23:35:50;8.80;99.90
19435;DHT22;9853;50.848;4.108;2024-03-25T23:37:58;8.70;99.90
19435;DHT22;9853;50.848;4.108;2024-03-25T23:39:59;8.70;99.90
19435;DHT22;9853;50.848;4.108;2024-03-25T23:42:03;8.80;99.90
19435;DHT22;9853;50.848;4.108;2024-03-25T23:44:04;8.80;99.90
19435;DHT22;9853;50.848;4.108;2024-03-25T23:46:08;8.70;99.90
19435;DHT22;9853;50.848;4.108;2024-03-25T23:48:35;8.70;99.90
19435;DHT22;9853;50.848;4.108;2024-03-25T23:50:41;8.70;99.90
19435;DHT22;9853;50.848;4.108;2024-03-25T23:53:06;8.70;99.90
19435;DHT22;9853;50.848;4.108;2024-03-25T23:57:34;8.70;99.90
19435;DHT22;9853;50.848;4.108;2024-03-25T23:59:35;8.70;99.90
